Cambridge, MN (55008)

4:14 AM CDT on April 25, 2015 (GMT -0500)
Little Africa, West Cambridge | | Change Station
CLOSE
Current Station
Personal Weather Station
Location: Cambridge, MN
Elevation: 955 ft
Nearby Weather Stations

Elev 955 ft 45.58 °N, 93.29 °W | Updated 8 seconds ago

Mostly Cloudy
Mostly Cloudy
44.3 °F
Feels Like 42 °F
N
5.0
Wind Variable Wind from ESE
Gusts 12.0 mph

Today
High -- | Low -- °F
--% Chance of Precip.
Yesterday
High -- | Low -- °F
Precip. -- in
6:10 AM 8:11 PM
Waxing Crescent, 44% visible
Pressure 29.82 in
Visibility 10.0 miles
Clouds Mostly Cloudy 2400 ft
Windchill 42 °F
Dew Point 38 °F
Humidity 77%
Rainfall 0.00 in
Snow Depth Not available.
UV 0 out of 12
Pollen 8.80 out of 12
Air Quality Not available.
Flu Activity Local Activity
METAR KCBG 250855Z AUTO 09006KT 10SM BKN024 08/02 A2982 RMK AO2

More Conditions Fewer Conditions

Pressure 29.82 in
Visibility 10.0 miles
Clouds Mostly Cloudy 2400 ft
Windchill 42 °F
Dew Point 38 °F
Humidity 77%
Rainfall 0.00 in
Snow Depth Not available.
UV 0 out of 12
Pollen 8.80 out of 12
Air Quality Not available.
Flu Activity Local Activity
METAR KCBG 250855Z AUTO 09006KT 10SM BKN024 08/02 A2982 RMK AO2

More Conditions Fewer Conditions

10-Day Weather Forecast

Almanac

Astronomy

Apr. 25, 2015 Rise Set
Actual Time
Civil Twilight
Nautical Twilight
Astronomical Twilight
Moon
Length of Visible Light
Length of Day
Tomorrow will be .
, % of the Moon is Illuminated

Today's Extremes

State Highs State Lows

Community

WunderPhotos

Upload Photos

1,816,631 photos uploaded!

WunderBlogs® & News

Nearby

Air Quality

  Air Quality AQ Index Pollutant
Not available.

Snow Depth

Station Depth Elevation

Earthquake Activity

City Distance Mag. Time & Date
Minimum magnitude displayed is 2.5.

Coastal Water Temperatures

Place Temperature

Stations

Nearby Weather Stations

Station Location Temp. Windchill Dew Point Humidity Wind Precip. Elev Updated Type